Time;durP1;ratioP1;P1;durP2;ratioP2;P2;SDS_P1;SDS_P2;PMS_P1;PMS_P2;Temp;Humidity;BMP_temperature;BMP_pressure;BME280_temperature;BME280_humidity;BME280_pressure;Samples;Min_cycle;Max_cycle;Signal;HPM_P1;HPM_P2
2023/07/05 00:03:20;;;;;;;;;;;;;;;23.41;100.00;101521.19;5052172;28;19916;-70
2023/07/05 00:05:45;;;;;;;;;;;;;;;23.36;100.00;101549.13;5051742;28;19909;-70
2023/07/05 00:08:10;;;;;;;;;;;;;;;23.40;100.00;101568.81;5053079;28;19974;-70
2023/07/05 00:10:36;;;;;;;;;;;;;;;23.42;100.00;101589.50;5052020;28;20014;-69
2023/07/05 00:13:01;;;;;;;;;;;;;;;23.24;100.00;101630.25;5034161;28;19908;-70
2023/07/05 00:15:27;;;;;;;;;;;;;;;23.57;100.00;101654.41;5033611;28;20011;-69
2023/07/05 00:17:53;;;;;;;;;;;;;;;23.50;100.00;101654.84;5052286;28;19958;-69
2023/07/05 00:20:19;;;;;;;;;;;;;;;23.39;100.00;101655.44;5052329;28;19909;-69
2023/07/05 00:25:47;;;;;;;;;;;;;;;23.36;100.00;101659.94;5055927;28;19931;-69
2023/07/05 00:31:15;;;;;;;;;;;;;;;23.08;100.00;101647.56;5055886;28;19914;-71
2023/07/05 00:33:40;;;;;;;;;;;;;;;23.10;100.00;101663.91;5055474;28;19995;-69
2023/07/05 00:36:05;;;;;;;;;;;;;;;22.89;100.00;101675.41;5055446;28;20367;-69
2023/07/05 00:38:30;;;;;;;;;;;;;;;22.91;100.00;101697.78;5055783;28;19912;-70
2023/07/05 00:43:59;;;;;;;;;;;;;;;23.11;100.00;101720.09;5055623;28;20275;-69
2023/07/05 00:46:26;;;;;;;;;;;;;;;23.06;100.00;101745.44;5055376;28;19913;-69
2023/07/05 00:48:53;;;;;;;;;;;;;;;22.98;100.00;101755.38;5054245;28;20378;-70
2023/07/05 00:51:28;;;;;;;;;;;;;;;22.85;100.00;101762.09;5055489;28;19909;-69
2023/07/05 00:53:56;;;;;;;;;;;;;;;22.89;100.00;101784.38;5051950;28;20382;-70
2023/07/05 00:56:28;;;;;;;;;;;;;;;22.71;100.00;101796.53;5055130;28;20298;-69
2023/07/05 00:58:53;;;;;;;;;;;;;;;22.68;100.00;101806.22;5055274;28;19912;-69
2023/07/05 01:01:19;;;;;;;;;;;;;;;22.47;100.00;101807.19;5054797;28;19908;-70
2023/07/05 01:03:46;;;;;;;;;;;;;;;22.36;100.00;101821.50;5057164;28;19964;-70
2023/07/05 01:06:14;;;;;;;;;;;;;;;22.46;100.00;101831.47;5056089;28;19908;-69
2023/07/05 01:11:51;;;;;;;;;;;;;;;22.66;100.00;101839.97;5055035;28;19915;-69
2023/07/05 01:14:16;;;;;;;;;;;;;;;22.63;100.00;101834.13;5054778;28;19904;-70
2023/07/05 01:16:57;;;;;;;;;;;;;;;22.35;100.00;101847.50;5054624;28;19913;-69
2023/07/05 01:19:26;;;;;;;;;;;;;;;22.54;100.00;101855.28;5055298;28;20266;-70
2023/07/05 01:21:51;;;;;;;;;;;;;;;22.65;100.00;101864.25;5054665;28;19916;-70
2023/07/05 01:24:22;;;;;;;;;;;;;;;22.25;100.00;101856.63;5054511;28;19909;-70
2023/07/05 01:30:00;;;;;;;;;;;;;;;22.25;100.00;101843.66;5054757;28;19911;-70
2023/07/05 01:32:35;;;;;;;;;;;;;;;22.18;100.00;101852.66;5054923;28;20309;-72
2023/07/05 01:35:12;;;;;;;;;;;;;;;21.88;100.00;101835.91;5054081;28;20381;-70
2023/07/05 01:40:43;;;;;;;;;;;;;;;22.28;100.00;101822.81;5054495;28;20378;-69
2023/07/05 01:46:23;;;;;;;;;;;;;;;22.28;100.00;101800.28;5054389;28;19973;-69
2023/07/05 01:48:54;;;;;;;;;;;;;;;22.02;100.00;101798.09;5052952;28;19909;-70
2023/07/05 01:51:35;;;;;;;;;;;;;;;22.41;100.00;101818.72;5052934;28;19986;-69
2023/07/05 01:54:10;;;;;;;;;;;;;;;22.18;100.00;101804.25;5054100;28;19992;-70
2023/07/05 01:56:56;;;;;;;;;;;;;;;22.44;100.00;101816.00;5052929;28;19909;-70
2023/07/05 01:59:23;;;;;;;;;;;;;;;22.34;100.00;101804.38;5053483;28;19940;-70
2023/07/05 02:01:51;;;;;;;;;;;;;;;21.99;100.00;101800.81;5054207;28;20006;-70
2023/07/05 02:04:17;;;;;;;;;;;;;;;22.13;100.00;101815.72;5054213;28;20014;-70
2023/07/05 02:09:45;;;;;;;;;;;;;;;22.14;100.00;101809.63;5053915;28;19911;-68
2023/07/05 02:12:11;;;;;;;;;;;;;;;22.03;100.00;101814.47;5035723;28;20362;-69
2023/07/05 02:14:36;;;;;;;;;;;;;;;22.18;100.00;101831.91;5054050;28;19921;-69
2023/07/05 02:17:01;;;;;;;;;;;;;;;22.14;100.00;101823.44;5053644;28;19955;-69
2023/07/05 02:22:30;;;;;;;;;;;;;;;21.79;100.00;101800.03;5053892;28;19947;-68
2023/07/05 02:24:55;;;;;;;;;;;;;;;21.74;100.00;101812.31;5051933;28;20027;-69
2023/07/05 02:27:21;;;;;;;;;;;;;;;21.72;100.00;101822.75;5053678;28;20352;-69
2023/07/05 02:29:47;;;;;;;;;;;;;;;21.39;100.00;101806.13;5053958;28;19909;-69
2023/07/05 02:32:12;;;;;;;;;;;;;;;21.41;100.00;101843.94;5053631;28;19909;-69
2023/07/05 02:34:41;;;;;;;;;;;;;;;21.55;100.00;101864.91;5035496;28;19944;-69
2023/07/05 02:37:07;;;;;;;;;;;;;;;21.38;100.00;101866.53;5051778;28;19913;-71
2023/07/05 02:39:32;;;;;;;;;;;;;;;21.57;100.00;101876.03;5052936;28;19909;-69
2023/07/05 02:45:00;;;;;;;;;;;;;;;21.55;100.00;101866.69;5053562;28;20071;-69
2023/07/05 02:47:26;;;;;;;;;;;;;;;21.42;100.00;101881.03;5034592;28;20003;-69
2023/07/05 02:49:51;;;;;;;;;;;;;;;21.43;100.00;101867.22;5053223;28;20311;-69
2023/07/05 02:52:16;;;;;;;;;;;;;;;21.36;100.00;101861.44;5034914;28;19931;-69
2023/07/05 02:54:42;;;;;;;;;;;;;;;21.53;100.00;101843.44;5053227;28;20306;-69
2023/07/05 02:57:07;;;;;;;;;;;;;;;21.52;100.00;101846.09;5052731;28;19935;-69
2023/07/05 02:59:32;;;;;;;;;;;;;;;21.30;100.00;101837.56;5053169;28;19909;-69
2023/07/05 03:01:57;;;;;;;;;;;;;;;21.36;100.00;101752.72;5053031;28;19908;-69
2023/07/05 03:07:41;;;;;;;;;;;;;;;21.45;100.00;101752.31;5052950;28;19978;-71
2023/07/05 03:13:09;;;;;;;;;;;;;;;21.61;100.00;101757.63;5053140;28;19911;-69
2023/07/05 03:18:37;;;;;;;;;;;;;;;21.48;100.00;101749.59;5052828;28;19912;-69
2023/07/05 03:21:02;;;;;;;;;;;;;;;21.60;100.00;101761.16;5034404;28;19909;-70
2023/07/05 03:23:28;;;;;;;;;;;;;;;21.65;100.00;101754.00;5034791;28;20274;-69
2023/07/05 03:25:55;;;;;;;;;;;;;;;21.81;100.00;101760.19;5052967;28;19948;-69
2023/07/05 03:31:23;;;;;;;;;;;;;;;21.75;100.00;101744.09;5052621;28;19915;-69
2023/07/05 03:33:51;;;;;;;;;;;;;;;21.88;100.00;101755.59;5052493;28;19905;-71
2023/07/05 03:36:18;;;;;;;;;;;;;;;21.76;100.00;101746.59;5052705;28;19966;-70
2023/07/05 03:38:43;;;;;;;;;;;;;;;21.90;100.00;101758.94;5051103;28;20324;-70
2023/07/05 03:41:11;;;;;;;;;;;;;;;21.66;100.00;101745.34;5052561;28;19940;-69
2023/07/05 03:43:37;;;;;;;;;;;;;;;21.85;100.00;101759.16;5052225;28;19915;-69
2023/07/05 03:46:03;;;;;;;;;;;;;;;22.24;100.00;101767.66;5052463;28;19917;-69
2023/07/05 03:48:30;;;;;;;;;;;;;;;21.93;100.00;101753.59;5052391;28;19940;-69
2023/07/05 03:53:58;;;;;;;;;;;;;;;22.04;100.00;101735.84;5052365;28;20001;-69
2023/07/05 03:56:24;;;;;;;;;;;;;;;21.83;100.00;101742.84;5034206;28;19915;-68
2023/07/05 03:58:50;;;;;;;;;;;;;;;22.23;100.00;101754.75;5053892;28;19913;-69
2023/07/05 04:01:25;;;;;;;;;;;;;;;22.06;100.00;101752.16;5055259;28;19915;-70
2023/07/05 04:03:53;;;;;;;;;;;;;;;22.30;100.00;101756.16;5056246;28;19915;-70
2023/07/05 04:06:19;;;;;;;;;;;;;;;22.57;100.00;101774.72;5056733;28;20011;-72
2023/07/05 04:08:44;;;;;;;;;;;;;;;22.00;100.00;101750.69;5056448;28;19955;-70
2023/07/05 04:11:10;;;;;;;;;;;;;;;22.01;100.00;101723.84;5056230;28;19908;-72
2023/07/05 04:13:36;;;;;;;;;;;;;;;21.98;100.00;101700.69;5056307;28;19909;-69
2023/07/05 04:16:01;;;;;;;;;;;;;;;22.06;100.00;101705.50;5055903;28;20385;-70
2023/07/05 04:18:30;;;;;;;;;;;;;;;22.30;100.00;101696.56;5056528;28;19909;-71
2023/07/05 04:20:55;;;;;;;;;;;;;;;22.26;100.00;101685.47;5055863;28;19913;-71
2023/07/05 04:23:21;;;;;;;;;;;;;;;22.34;100.00;101685.13;5054376;28;19915;-72
2023/07/05 04:25:46;;;;;;;;;;;;;;;22.21;100.00;101666.72;5056070;28;20358;-72
2023/07/05 04:28:11;;;;;;;;;;;;;;;22.31;100.00;101641.19;5056026;28;19916;-70
2023/07/05 04:33:39;;;;;;;;;;;;;;;22.54;100.00;101594.19;5055968;28;19958;-71
2023/07/05 04:39:14;;;;;;;;;;;;;;;22.27;100.00;101510.91;5042316;28;19987;-70
2023/07/05 04:44:41;;;;;;;;;;;;;;;23.13;100.00;101469.94;5056022;28;20013;-73
2023/07/05 04:47:07;;;;;;;;;;;;;;;23.15;100.00;101472.44;5055812;28;19912;-74
2023/07/05 04:49:32;;;;;;;;;;;;;;;23.34;100.00;101464.47;5038621;28;19915;-74
2023/07/05 04:51:57;;;;;;;;;;;;;;;23.00;100.00;101455.94;5055609;28;19915;-76
2023/07/05 04:57:42;;;;;;;;;;;;;;;23.32;100.00;101443.78;5056089;28;19997;-75
2023/07/05 05:03:10;;;;;;;;;;;;;;;23.56;100.00;101457.97;5055605;28;20380;-75
2023/07/05 05:05:35;;;;;;;;;;;;;;;23.40;100.00;101470.16;5055939;28;19958;-75
2023/07/05 05:08:00;;;;;;;;;;;;;;;23.46;100.00;101481.94;5055098;28;20294;-74
2023/07/05 05:10:26;;;;;;;;;;;;;;;23.80;100.00;101479.91;5055100;28;20046;-74
2023/07/05 05:15:54;;;;;;;;;;;;;;;24.11;100.00;101476.34;5055473;28;19912;-74
2023/07/05 05:18:20;;;;;;;;;;;;;;;24.14;100.00;101499.56;5055707;28;19909;-74
2023/07/05 05:20:45;;;;;;;;;;;;;;;24.05;100.00;101500.09;5054449;28;20282;-74
2023/07/05 05:23:11;;;;;;;;;;;;;;;24.48;100.00;101521.78;5054358;28;19952;-74
2023/07/05 05:25:42;;;;;;;;;;;;;;;24.19;100.00;101520.06;5055694;28;20003;-75
2023/07/05 05:28:08;;;;;;;;;;;;;;;24.20;100.00;101524.38;5054621;28;19951;-75
2023/07/05 05:30:34;;;;;;;;;;;;;;;24.45;100.00;101535.81;5054457;28;19944;-75
2023/07/05 05:33:00;;;;;;;;;;;;;;;24.36;100.00;101532.94;5054990;28;19909;-74
2023/07/05 05:38:28;;;;;;;;;;;;;;;23.46;100.00;101516.53;5057738;28;20035;-75
2023/07/05 05:40:59;;;;;;;;;;;;;;;23.91;100.00;101554.63;5054732;28;19971;-73
2023/07/05 05:43:24;;;;;;;;;;;;;;;23.85;100.00;101550.63;5054318;28;19920;-74
2023/07/05 05:48:52;;;;;;;;;;;;;;;24.47;100.00;101539.16;5055177;28;19915;-75
2023/07/05 05:54:21;;;;;;;;;;;;;;;25.07;100.00;101536.31;5055364;28;19974;-76
2023/07/05 05:56:46;;;;;;;;;;;;;;;25.22;100.00;101551.81;5054719;28;20355;-76
2023/07/05 05:59:11;;;;;;;;;;;;;;;25.63;100.00;101572.63;5055325;28;19913;-75
2023/07/05 06:01:36;;;;;;;;;;;;;;;25.07;100.00;101565.78;5055266;28;19908;-75
2023/07/05 06:07:05;;;;;;;;;;;;;;;25.33;100.00;101580.63;5054978;28;19981;-75
2023/07/05 06:12:42;;;;;;;;;;;;;;;24.82;100.00;101556.06;5054876;28;20015;-75
2023/07/05 06:18:10;;;;;;;;;;;;;;;26.35;100.00;101642.59;5054854;28;19962;-75
2023/07/05 06:20:35;;;;;;;;;;;;;;;25.98;100.00;101648.53;5054180;28;19975;-75
2023/07/05 06:23:03;;;;;;;;;;;;;;;25.37;100.00;101615.97;5053998;28;19909;-75
2023/07/05 06:25:28;;;;;;;;;;;;;;;26.16;100.00;101639.53;5036883;28;19916;-75
2023/07/05 06:30:56;;;;;;;;;;;;;;;26.35;100.00;101582.56;5054561;28;19939;-75
2023/07/05 06:33:21;;;;;;;;;;;;;;;26.58;100.00;101592.28;5035890;28;19908;-75
2023/07/05 06:35:48;;;;;;;;;;;;;;;26.93;100.00;101564.59;5054220;28;20398;-75
2023/07/05 06:38:13;;;;;;;;;;;;;;;26.57;100.00;101512.31;5053351;28;19966;-76
2023/07/05 06:40:38;;;;;;;;;;;;;;;26.31;100.00;101480.19;5055322;28;19912;-76
2023/07/05 06:43:04;;;;;;;;;;;;;;;26.24;100.00;101445.06;5036665;28;19909;-76
2023/07/05 06:45:30;;;;;;;;;;;;;;;27.40;100.00;101456.66;5054631;28;19909;-76
2023/07/05 06:47:55;;;;;;;;;;;;;;;26.88;100.00;101410.00;5053655;28;20019;-76
2023/07/05 06:53:24;;;;;;;;;;;;;;;27.56;100.00;101355.25;5054272;28;19954;-75
2023/07/05 06:55:50;;;;;;;;;;;;;;;26.86;100.00;101323.09;5035765;28;19908;-75
2023/07/05 06:58:16;;;;;;;;;;;;;;;27.90;100.00;101340.38;5053845;28;19966;-74
2023/07/05 07:00:41;;;;;;;;;;;;;;;27.44;100.00;101299.50;5053439;28;19905;-74
2023/07/05 07:06:10;;;;;;;;;;;;;;;27.83;100.00;101227.56;5053523;28;20357;-74
2023/07/05 07:08:37;;;;;;;;;;;;;;;27.07;100.00;101177.88;5053301;28;19913;-73
2023/07/05 07:11:03;;;;;;;;;;;;;;;27.24;100.00;101171.31;5053564;28;19909;-73
2023/07/05 07:13:29;;;;;;;;;;;;;;;27.51;100.00;101150.06;5053807;28;19912;-74
2023/07/05 07:16:05;;;;;;;;;;;;;;;27.30;100.00;101110.75;5052728;28;20003;-74
2023/07/05 07:18:30;;;;;;;;;;;;;;;28.10;100.00;101109.47;5053297;28;19912;-74
2023/07/05 07:20:56;;;;;;;;;;;;;;;27.40;100.00;101073.34;5051911;28;19909;-74
2023/07/05 07:26:24;;;;;;;;;;;;;;;28.43;100.00;101001.94;5053534;28;19958;-72
2023/07/05 07:28:52;;;;;;;;;;;;;;;28.36;100.00;100982.50;5052089;28;19909;-74
2023/07/05 07:31:19;;;;;;;;;;;;;;;28.56;100.00;100939.75;5053406;28;19932;-74
2023/07/05 07:33:45;;;;;;;;;;;;;;;27.95;100.00;100904.94;5052973;28;19916;-76
2023/07/05 07:39:14;;;;;;;;;;;;;;;28.53;100.00;100847.53;5052727;28;19919;-75
2023/07/05 07:44:42;;;;;;;;;;;;;;;28.65;100.00;100739.94;5053319;28;19966;-75
2023/07/05 07:50:13;;;;;;;;;;;;;;;29.93;100.00;100682.38;5053377;28;19994;-75
2023/07/05 07:55:41;;;;;;;;;;;;;;;30.31;100.00;100589.34;5053739;28;20378;-74
2023/07/05 07:58:07;;;;;;;;;;;;;;;29.60;100.00;100541.38;5034956;28;19909;-73
2023/07/05 08:00:33;;;;;;;;;;;;;;;30.10;100.00;100497.84;5035563;28;19909;-74
2023/07/05 08:02:58;;;;;;;;;;;;;;;29.73;100.00;100456.09;5053498;28;19913;-75
2023/07/05 08:08:26;;;;;;;;;;;;;;;29.97;100.00;100386.44;5053280;28;19927;-77
2023/07/05 08:10:52;;;;;;;;;;;;;;;29.97;100.00;100366.25;5052734;28;20350;-75
2023/07/05 08:13:17;;;;;;;;;;;;;;;29.90;100.00;100315.41;5034895;28;19909;-75
2023/07/05 08:15:42;;;;;;;;;;;;;;;29.62;100.00;100300.81;5052692;28;19908;-75
2023/07/05 08:18:07;;;;;;;;;;;;;;;30.05;100.00;100268.41;5052317;28;20015;-75
2023/07/05 08:20:33;;;;;;;;;;;;;;;29.83;100.00;100248.84;5034995;28;19908;-73
2023/07/05 08:22:58;;;;;;;;;;;;;;;30.09;100.00;100212.78;5034933;28;19908;-75
2023/07/05 08:25:24;;;;;;;;;;;;;;;30.76;100.00;100167.84;5035075;28;20402;-75
2023/07/05 08:27:49;;;;;;;;;;;;;;;30.85;100.00;100147.69;5053086;28;19909;-75
2023/07/05 08:33:17;;;;;;;;;;;;;;;31.18;100.00;100127.38;5053257;28;19958;-75
2023/07/05 08:35:43;;;;;;;;;;;;;;;31.07;100.00;100156.63;5034862;28;19909;-75
2023/07/05 08:38:09;;;;;;;;;;;;;;;30.47;100.00;100177.25;5052307;28;19924;-75
2023/07/05 08:40:38;;;;;;;;;;;;;;;31.03;100.00;100192.13;5031304;28;19917;-76
2023/07/05 08:46:08;;;;;;;;;;;;;;;31.14;100.00;100352.09;5035659;28;19917;-75
2023/07/05 08:51:36;;;;;;;;;;;;;;;31.16;100.00;100561.22;5036349;28;19962;-75
2023/07/05 08:54:04;;;;;;;;;;;;;;;30.96;100.00;100693.03;5035557;28;19913;-75
2023/07/05 08:56:36;;;;;;;;;;;;;;;31.96;100.00;101587.13;5036922;28;20382;-76
2023/07/05 08:59:06;;;;;;;;;;;;;;;31.48;100.00;101642.38;5051495;28;19909;-76
2023/07/05 09:04:34;;;;;;;;;;;;;;;31.11;100.00;101275.88;5036241;28;19915;-76
2023/07/05 09:07:03;;;;;;;;;;;;;;;31.88;100.00;101093.91;5034797;28;19908;-75
2023/07/05 09:09:28;;;;;;;;;;;;;;;31.72;100.00;100878.84;5035757;28;20256;-73
2023/07/05 09:11:58;;;;;;;;;;;;;;;31.39;100.00;100677.16;5035505;28;19966;-73
2023/07/05 09:14:33;;;;;;;;;;;;;;;31.63;100.00;101277.88;5035388;28;19908;-73
2023/07/05 09:17:13;;;;;;;;;;;;;;;31.69;100.00;100226.75;5050771;28;19909;-73
2023/07/05 09:22:41;;;;;;;;;;;;;;;31.85;100.00;98826.31;5035615;28;20433;-73
2023/07/05 09:25:10;;;;;;;;;;;;;;;31.90;100.00;98810.72;5050708;28;19909;-74
2023/07/05 09:27:37;;;;;;;;;;;;;;;32.30;100.00;98870.91;5035341;28;19909;-72
2023/07/05 09:30:11;;;;;;;;;;;;;;;32.42;100.00;98900.84;5035310;28;19909;-73
2023/07/05 09:35:42;;;;;;;;;;;;;;;32.99;100.00;99057.28;5034926;28;19911;-71
2023/07/05 09:38:17;;;;;;;;;;;;;;;32.92;100.00;99115.22;5035058;28;20000;-73
2023/07/05 09:40:47;;;;;;;;;;;;;;;32.65;100.00;99232.19;5048704;28;19917;-72
2023/07/05 09:43:16;;;;;;;;;;;;;;;32.58;100.00;99530.81;5054733;28;19916;-72
2023/07/05 09:48:46;;;;;;;;;;;;;;;31.91;100.00;99791.78;5054786;28;19935;-73
2023/07/05 09:51:12;;;;;;;;;;;;;;;32.43;100.00;99787.13;5054742;28;20006;-72
2023/07/05 09:53:40;;;;;;;;;;;;;;;32.45;100.00;99841.47;5053249;28;20371;-73
2023/07/05 09:56:08;;;;;;;;;;;;;;;32.28;100.00;99878.53;5054379;28;19912;-71
2023/07/05 09:58:34;;;;;;;;;;;;;;;32.34;100.00;99884.88;5053995;28;19931;-72
2023/07/05 10:01:04;;;;;;;;;;;;;;;32.56;100.00;99931.34;5054181;28;20359;-72
2023/07/05 10:03:34;;;;;;;;;;;;;;;32.95;100.00;99978.41;5056691;28;19916;-71
2023/07/05 10:09:11;;;;;;;;;;;;;;;32.48;100.00;100022.81;5054433;28;19911;-71
2023/07/05 10:11:41;;;;;;;;;;;;;;;33.21;100.00;100058.63;5054239;28;19915;-71
2023/07/05 10:14:07;;;;;;;;;;;;;;;33.31;100.00;100071.50;5054251;28;19909;-72
2023/07/05 10:16:49;;;;;;;;;;;;;;;32.99;100.00;100064.03;5054364;28;20263;-72
2023/07/05 10:19:28;;;;;;;;;;;;;;;32.90;100.00;100059.84;5054467;28;19908;-72
2023/07/05 10:21:58;;;;;;;;;;;;;;;32.64;100.00;100041.06;5054211;28;20379;-72
2023/07/05 10:24:24;;;;;;;;;;;;;;;32.87;100.00;100060.19;5052358;28;20279;-74
2023/07/05 10:27:01;;;;;;;;;;;;;;;33.24;100.00;100095.16;5052374;28;19974;-74
2023/07/05 10:32:32;;;;;;;;;;;;;;;32.64;100.00;100075.31;5053647;28;20920;-73
2023/07/05 10:34:57;;;;;;;;;;;;;;;33.17;100.00;100081.09;5053726;28;20382;-73
2023/07/05 10:37:26;;;;;;;;;;;;;;;33.46;100.00;100109.19;5053520;28;19934;-73
2023/07/05 10:43:07;;;;;;;;;;;;;;;33.79;100.00;100139.44;5041749;28;20409;-72
2023/07/05 10:45:34;;;;;;;;;;;;;;;33.00;100.00;100128.94;5052765;28;19913;-72
2023/07/05 10:48:01;;;;;;;;;;;;;;;33.35;100.00;100127.34;5053534;28;20007;-71
2023/07/05 10:50:29;;;;;;;;;;;;;;;33.67;100.00;100142.75;5053564;28;19916;-71
2023/07/05 10:53:01;;;;;;;;;;;;;;;32.74;100.00;100150.47;5053162;28;20375;-71
2023/07/05 10:55:38;;;;;;;;;;;;;;;32.67;100.00;100133.72;5053555;28;20951;-71
2023/07/05 11:01:19;;;;;;;;;;;;;;;33.60;100.00;100144.47;5053211;28;19995;-71
2023/07/05 11:03:51;;;;;;;;;;;;;;;33.44;100.00;100139.41;5052741;28;19909;-72
2023/07/05 11:06:17;;;;;;;;;;;;;;;33.06;100.00;100141.41;5053068;28;19909;-72
2023/07/05 11:11:48;;;;;;;;;;;;;;;34.09;100.00;100159.41;5053009;28;19915;-71
2023/07/05 11:14:14;;;;;;;;;;;;;;;32.59;100.00;100125.06;5052827;28;19909;-72
2023/07/05 11:16:42;;;;;;;;;;;;;;;33.67;100.00;100138.28;5052952;28;20275;-72
2023/07/05 11:19:10;;;;;;;;;;;;;;;33.23;100.00;100129.63;5052774;28;20423;-72
2023/07/05 11:24:38;;;;;;;;;;;;;;;33.23;100.00;100130.47;5052741;28;20451;-72
2023/07/05 11:30:26;;;;;;;;;;;;;;;33.57;100.00;100121.13;5052737;28;20389;-72
2023/07/05 11:33:03;;;;;;;;;;;;;;;33.26;100.00;100118.69;5051165;28;20003;-71
2023/07/05 11:38:38;;;;;;;;;;;;;;;33.40;100.00;100115.22;5052936;28;19912;-71
2023/07/05 11:41:07;;;;;;;;;;;;;;;33.30;100.00;100114.69;5051101;28;19947;-72
2023/07/05 11:43:41;;;;;;;;;;;;;;;33.49;100.00;100108.88;5052184;28;19916;-71
2023/07/05 11:49:22;;;;;;;;;;;;;;;33.57;100.00;100108.75;5052585;28;19958;-71
2023/07/05 11:51:53;;;;;;;;;;;;;;;33.16;100.00;100084.72;5051150;28;19912;-72
2023/07/05 11:54:21;;;;;;;;;;;;;;;33.20;100.00;100085.16;5052398;28;19909;-71
2023/07/05 11:59:58;;;;;;;;;;;;;;;34.44;100.00;100107.50;5052354;28;20393;-72
2023/07/05 12:05:28;;;;;;;;;;;;;;;34.09;100.00;100095.25;5052713;28;19970;-71
2023/07/05 12:08:24;;;;;;;;;;;;;;;33.28;100.00;100076.34;5052311;28;19908;-71
2023/07/05 12:10:54;;;;;;;;;;;;;;;33.64;100.00;100091.16;5025472;28;19909;-71
2023/07/05 12:13:21;;;;;;;;;;;;;;;33.67;100.00;100080.22;5050756;28;19966;-71
2023/07/05 12:15:47;;;;;;;;;;;;;;;34.34;100.00;100088.53;5051959;28;19958;-72
2023/07/05 12:18:14;;;;;;;;;;;;;;;34.11;100.00;100079.22;5052097;28;19986;-71
2023/07/05 12:20:41;;;;;;;;;;;;;;;34.29;100.00;100085.63;5052919;28;19913;-72
2023/07/05 12:23:11;;;;;;;;;;;;;;;34.20;100.00;100078.88;5054725;28;20004;-72
2023/07/05 12:25:36;;;;;;;;;;;;;;;34.20;100.00;100078.03;5054875;28;20386;-72
2023/07/05 12:31:12;;;;;;;;;;;;;;;34.20;100.00;100056.91;5055858;28;19915;-71
2023/07/05 12:33:37;;;;;;;;;;;;;;;33.87;100.00;100046.88;5055666;28;19904;-72
2023/07/05 12:36:13;;;;;;;;;;;;;;;33.98;100.00;100045.59;5054346;28;20003;-72
2023/07/05 12:38:39;;;;;;;;;;;;;;;33.64;100.00;100033.09;5056332;28;19911;-72
2023/07/05 12:41:07;;;;;;;;;;;;;;;33.64;100.00;100041.03;5055557;28;19958;-72
2023/07/05 12:43:32;;;;;;;;;;;;;;;34.55;100.00;100050.66;5055988;28;19912;-72
2023/07/05 12:46:27;;;;;;;;;;;;;;;34.22;100.00;100052.25;5056260;28;20023;-72
2023/07/05 12:51:58;;;;;;;;;;;;;;;33.62;100.00;100029.84;5055589;28;20334;-73
2023/07/05 12:54:24;;;;;;;;;;;;;;;33.66;100.00;100028.44;5055460;28;19947;-73
2023/07/05 12:56:50;;;;;;;;;;;;;;;33.67;100.00;100027.47;5055877;28;19909;-73
2023/07/05 12:59:25;;;;;;;;;;;;;;;34.33;100.00;100054.38;5055505;28;19920;-71
2023/07/05 13:01:51;;;;;;;;;;;;;;;33.71;100.00;100038.44;5055295;28;19948;-72
2023/07/05 13:04:18;;;;;;;;;;;;;;;34.67;100.00;100041.16;5055490;28;19955;-72
2023/07/05 13:06:44;;;;;;;;;;;;;;;34.03;100.00;100027.38;5054082;28;20350;-72
2023/07/05 13:12:12;;;;;;;;;;;;;;;33.38;100.00;100022.25;5055220;28;19911;-71
2023/07/05 13:14:40;;;;;;;;;;;;;;;34.00;100.00;100027.72;5055214;28;19909;-72
2023/07/05 13:17:12;;;;;;;;;;;;;;;34.01;100.00;100019.63;5053565;28;19915;-72
2023/07/05 13:19:48;;;;;;;;;;;;;;;34.15;100.00;100030.28;5053844;28;19908;-72
2023/07/05 13:22:13;;;;;;;;;;;;;;;34.56;100.00;100028.50;5055030;28;19909;-71
2023/07/05 13:24:43;;;;;;;;;;;;;;;34.29;100.00;100021.44;5053625;28;20424;-72
2023/07/05 13:27:18;;;;;;;;;;;;;;;34.35;100.00;100026.75;5053514;28;19915;-72
2023/07/05 13:29:43;;;;;;;;;;;;;;;33.92;100.00;100020.75;5054312;28;19909;-72
2023/07/05 13:32:21;;;;;;;;;;;;;;;34.44;100.00;100012.38;5036672;28;19916;-72
2023/07/05 13:37:50;;;;;;;;;;;;;;;34.42;100.00;100016.22;5054681;28;20279;-75
2023/07/05 13:40:19;;;;;;;;;;;;;;;34.46;100.00;100013.00;5052740;28;19912;-73
2023/07/05 13:42:47;;;;;;;;;;;;;;;33.82;100.00;99996.50;5054230;28;19912;-73
2023/07/05 13:45:21;;;;;;;;;;;;;;;33.73;100.00;99992.41;5054568;28;19915;-74
2023/07/05 13:47:47;;;;;;;;;;;;;;;33.71;100.00;99973.28;5053034;28;20019;-73
2023/07/05 13:50:12;;;;;;;;;;;;;;;34.47;100.00;99975.00;5054766;28;20058;-73
2023/07/05 13:52:38;;;;;;;;;;;;;;;33.96;100.00;99969.19;5054304;28;19913;-73
2023/07/05 13:58:11;;;;;;;;;;;;;;;33.82;100.00;99959.56;5054674;28;19916;-73
2023/07/05 14:00:37;;;;;;;;;;;;;;;33.58;100.00;99953.88;5054333;28;19966;-74
2023/07/05 14:03:03;;;;;;;;;;;;;;;34.05;100.00;99959.34;5036366;28;19909;-72
2023/07/05 14:05:28;;;;;;;;;;;;;;;34.33;100.00;99975.13;5054274;28;20330;-72
2023/07/05 14:10:57;;;;;;;;;;;;;;;34.02;100.00;99957.91;5054145;28;19911;-72
2023/07/05 14:13:24;;;;;;;;;;;;;;;33.94;100.00;99954.56;5054167;28;19912;-72
2023/07/05 14:15:49;;;;;;;;;;;;;;;33.84;100.00;99960.19;5054315;28;19909;-72
2023/07/05 14:18:16;;;;;;;;;;;;;;;33.80;100.00;99966.84;5053312;28;20385;-72
2023/07/05 14:23:45;;;;;;;;;;;;;;;33.50;100.00;99952.19;5053893;28;19915;-71
2023/07/05 14:29:13;;;;;;;;;;;;;;;33.88;100.00;99945.59;5053772;28;19996;-71
2023/07/05 14:31:38;;;;;;;;;;;;;;;33.59;100.00;99942.34;5053852;28;19948;-72
2023/07/05 14:34:04;;;;;;;;;;;;;;;33.87;100.00;99951.06;5053647;28;20268;-72
2023/07/05 14:36:30;;;;;;;;;;;;;;;33.36;100.00;99931.19;5053703;28;19915;-72
2023/07/05 14:38:55;;;;;;;;;;;;;;;33.56;100.00;99930.34;5053706;28;19912;-70
2023/07/05 14:44:23;;;;;;;;;;;;;;;33.57;100.00;99931.16;5040932;28;19920;-72
2023/07/05 14:46:48;;;;;;;;;;;;;;;34.05;100.00;99935.56;5053616;28;19912;-72
2023/07/05 14:52:17;;;;;;;;;;;;;;;33.40;100.00;99924.50;5053284;28;19991;-68
2023/07/05 14:54:42;;;;;;;;;;;;;;;33.36;100.00;99926.69;5053113;28;19956;-69
2023/07/05 14:57:10;;;;;;;;;;;;;;;33.27;100.00;99927.84;5035016;28;19912;-69
2023/07/05 14:59:36;;;;;;;;;;;;;;;33.59;100.00;99935.25;5053183;28;19913;-68
2023/07/05 15:05:05;;;;;;;;;;;;;;;33.57;100.00;99932.00;5052996;28;19967;-68
2023/07/05 15:07:30;;;;;;;;;;;;;;;33.38;100.00;99921.25;5052955;28;19912;-69
2023/07/05 15:09:55;;;;;;;;;;;;;;;33.34;100.00;99926.06;5053134;28;19995;-69
2023/07/05 15:12:23;;;;;;;;;;;;;;;33.42;100.00;99919.88;5052737;28;19916;-69
2023/07/05 15:17:51;;;;;;;;;;;;;;;33.04;100.00;99921.97;5052803;28;19939;-68
2023/07/05 15:20:18;;;;;;;;;;;;;;;33.62;100.00;99924.28;5052478;28;20335;-69
2023/07/05 15:22:46;;;;;;;;;;;;;;;33.20;100.00;99919.03;5052959;28;20359;-68
2023/07/05 15:25:12;;;;;;;;;;;;;;;32.81;100.00;99908.09;5052630;28;19913;-68
2023/07/05 15:30:40;;;;;;;;;;;;;;;32.43;100.00;99899.53;5052603;28;20334;-68
2023/07/05 15:36:12;;;;;;;;;;;;;;;32.51;100.00;99902.09;5052795;28;19955;-68
2023/07/05 15:38:37;;;;;;;;;;;;;;;32.28;100.00;99915.38;5052216;28;19909;-67
2023/07/05 15:41:03;;;;;;;;;;;;;;;32.03;100.00;99908.75;5052068;28;20381;-70
2023/07/05 15:43:28;;;;;;;;;;;;;;;32.02;100.00;99909.78;5051954;28;19939;-68
2023/07/05 15:48:56;;;;;;;;;;;;;;;32.11;100.00;99915.78;5052393;28;19966;-67
2023/07/05 15:51:21;;;;;;;;;;;;;;;32.07;100.00;99896.88;5051953;28;20003;-68
2023/07/05 15:53:47;;;;;;;;;;;;;;;31.93;100.00;99905.59;5052560;28;19994;-68
2023/07/05 15:56:12;;;;;;;;;;;;;;;31.74;100.00;99903.47;5052501;28;19913;-68
2023/07/05 16:01:40;;;;;;;;;;;;;;;31.35;100.00;99929.13;5052316;28;19947;-68
2023/07/05 16:07:08;;;;;;;;;;;;;;;31.46;100.00;99934.81;5052242;28;19963;-67
2023/07/05 16:09:33;;;;;;;;;;;;;;;31.35;100.00;99929.94;5051427;28;20359;-66